Latest Weather Observations for Sellicks Hill

IDS60901

Issued at 12:51 am CDT Thursday 28 January 2021 (issued every 10 minutes, with the page automatically refreshed every 10 minutes)

About weather observations | Map of Adelaide area stations | Latest observations for Adelaide area | Other Formats
Station Details ID: 023886 Name: MOUNT TERRIBLE RADAR Lat: -35.33 Lon: 138.50 Height: 385.7 m
Data from the previous 72 hours. | See also: Recent months at Sellicks Hill
Date/Time
CDT
Temp
°C
App
Temp
°C
Dew
Point
°C
Rel
Hum
%
Delta-T
°C
Wind Press
QNH
hPa
Press
MSL
hPa
Rain since
9am
mm
Dir  Spd
km/h
Gust
km/h
Spd
kts
Gust
kts
28/12:30am - - - - - SSE 24 28 13 15 - - -
28/12:00am - - - - - SSE 28 33 15 18 - - -
 
Date/Time
CDT
Temp
°C
App
Temp
°C
Dew
Point
°C
Rel
Hum
%
Delta-T
°C
Wind Press
QNH
hPa
Press
MSL
hPa
Rain since
9am
mm
Dir  Spd
km/h
Gust
km/h
Spd
kts
Gust
kts
27/11:30pm - - - - - SSE 30 35 16 19 - - -
27/11:00pm - - - - - SSE 32 39 17 21 - - -
27/10:30pm - - - - - SSE 28 32 15 17 - - -
27/10:00pm - - - - - SSE 30 33 16 18 - - -
27/09:30pm - - - - - SSE 33 39 18 21 - - -
27/09:00pm - - - - - SSE 32 37 17 20 - - -
27/08:30pm - - - - - SSE 32 37 17 20 - - -
27/08:00pm - - - - - SSE 32 35 17 19 - - -
27/07:30pm - - - - - SE 28 33 15 18 - - -
27/07:00pm - - - - - SSE 32 35 17 19 - - -
27/06:30pm - - - - - SSE 30 35 16 19 - - -
27/06:00pm - - - - - SSE 32 37 17 20 - - -
27/05:30pm - - - - - SE 22 32 12 17 - - -
27/05:00pm - - - - - SE 22 32 12 17 - - -
27/04:30pm - - - - - SE 24 35 13 19 - - -
27/04:00pm - - - - - SE 30 41 16 22 - - -
27/03:30pm - - - - - SE 26 39 14 21 - - -
27/03:00pm - - - - - SE 28 39 15 21 - - -
27/02:30pm - - - - - ESE 28 37 15 20 - - -
27/02:00pm - - - - - SE 32 44 17 24 - - -
27/01:30pm - - - - - ESE 30 46 16 25 - - -
27/01:00pm - - - - - SE 33 46 18 25 - - -
27/12:30pm - - - - - SE 30 44 16 24 - - -
27/12:00pm - - - - - SE 32 44 17 24 - - -
27/11:30am - - - - - SE 41 50 22 27 - - -
27/11:00am - - - - - SE 33 46 18 25 - - -
27/10:30am - - - - - SE 39 50 21 27 - - -
27/10:00am - - - - - SE 43 52 23 28 - - -
27/09:30am - - - - - SE 43 50 23 27 - - -
27/09:00am - - - - - SE 43 59 23 32 - - -
27/08:30am - - - - - SE 44 57 24 31 - - -
27/08:00am - - - - - SE 43 54 23 29 - - -
27/07:30am - - - - - SE 46 57 25 31 - - -
27/07:00am - - - - - SE 44 56 24 30 - - -
27/06:30am - - - - - SE 44 57 24 31 - - -
27/06:00am - - - - - SE 46 61 25 33 - - -
27/05:30am - - - - - SE 44 57 24 31 - - -
27/05:00am - - - - - SE 46 57 25 31 - - -
27/04:30am - - - - - SE 44 57 24 31 - - -
27/04:00am - - - - - SE 44 50 24 27 - - -
27/03:30am - - - - - SE 46 57 25 31 - - -
27/03:00am - - - - - SE 48 57 26 31 - - -
27/02:30am - - - - - SSE 46 61 25 33 - - -
27/02:00am - - - - - SSE 44 54 24 29 - - -
27/01:30am - - - - - SSE 46 56 25 30 - - -
27/01:00am - - - - - SSE 44 56 24 30 - - -
27/12:30am - - - - - SSE 46 56 25 30 - - -
27/12:00am - - - - - SSE 48 56 26 30 - - -
 
Date/Time
CDT
Temp
°C
App
Temp
°C
Dew
Point
°C
Rel
Hum
%
Delta-T
°C
Wind Press
QNH
hPa
Press
MSL
hPa
Rain since
9am
mm
Dir  Spd
km/h
Gust
km/h
Spd
kts
Gust
kts
26/11:30pm - - - - - SSE 52 59 28 32 - - -
26/11:00pm - - - - - SSE 50 61 27 33 - - -
26/10:30pm - - - - - SSE 48 61 26 33 - - -
26/10:00pm - - - - - SSE 46 54 25 29 - - -
26/09:30pm - - - - - SSE 41 46 22 25 - - -
26/09:00pm - - - - - SSE 39 50 21 27 - - -
26/08:30pm - - - - - SSE 41 48 22 26 - - -
26/08:00pm - - - - - SSE 41 48 22 26 - - -
26/07:30pm - - - - - SSE 37 46 20 25 - - -
26/07:00pm - - - - - SSE 35 44 19 24 - - -
26/06:30pm - - - - - SSE 35 44 19 24 - - -
26/06:00pm - - - - - SSE 32 39 17 21 - - -
26/05:30pm - - - - - SSE 32 39 17 21 - - -
26/05:00pm - - - - - SSE 32 41 17 22 - - -
26/04:30pm - - - - - SSE 30 43 16 23 - - -
26/04:00pm - - - - - SSE 32 41 17 22 - - -
26/03:30pm - - - - - SSE 30 39 16 21 - - -
26/03:00pm - - - - - S 22 37 12 20 - - -
26/02:30pm - - - - - SSE 24 35 13 19 - - -
26/02:00pm - - - - - SSE 26 35 14 19 - - -
26/01:30pm - - - - - SSE 24 33 13 18 - - -
26/01:00pm - - - - - S 20 30 11 16 - - -
26/12:30pm - - - - - SSE 26 35 14 19 - - -
26/12:00pm - - - - - S 26 37 14 20 - - -
26/11:30am - - - - - SSE 28 39 15 21 - - -
26/11:00am - - - - - SSE 26 35 14 19 - - -
26/10:30am - - - - - S 28 35 15 19 - - -
26/10:00am - - - - - S 26 33 14 18 - - -
26/09:30am - - - - - S 24 32 13 17 - - -
26/09:00am - - - - - S 24 33 13 18 - - -
26/08:30am - - - - - S 22 30 12 16 - - -
26/08:00am - - - - - SSE 24 32 13 17 - - -
26/07:30am - - - - - SSE 26 33 14 18 - - -
26/07:00am - - - - - SSE 26 33 14 18 - - -
26/06:30am - - - - - SSE 35 43 19 23 - - -
26/06:00am - - - - - SSE 30 37 16 20 - - -
26/05:30am - - - - - SSE 32 39 17 21 - - -
26/05:00am - - - - - S 30 39 16 21 - - -
26/04:30am - - - - - S 30 37 16 20 - - -
26/04:00am - - - - - S 30 35 16 19 - - -
26/03:30am - - - - - S 28 35 15 19 - - -
26/03:00am - - - - - S 26 33 14 18 - - -
26/02:30am - - - - - S 22 32 12 17 - - -
26/02:00am - - - - - S 20 28 11 15 - - -
26/01:30am - - - - - SSW 2 6 1 3 - - -
26/01:00am - - - - - WSW 2 15 1 8 - - -
26/12:30am - - - - - CALM 0 4 0 2 - - -
26/12:00am - - - - - S 7 13 4 7 - - -
 
Date/Time
CDT
Temp
°C
App
Temp
°C
Dew
Point
°C
Rel
Hum
%
Delta-T
°C
Wind Press
QNH
hPa
Press
MSL
hPa
Rain since
9am
mm
Dir  Spd
km/h
Gust
km/h
Spd
kts
Gust
kts
25/11:30pm - - - - - SSE 13 15 7 8 - - -
25/11:00pm - - - - - SSE 15 19 8 10 - - -
25/10:30pm - - - - - SSE 19 24 10 13 - - -
25/10:00pm - - - - - SSE 20 24 11 13 - - -
25/09:30pm - - - - - S 22 26 12 14 - - -
25/09:00pm - - - - - S 22 28 12 15 - - -
25/08:30pm - - - - - SSE 24 30 13 16 - - -
25/08:00pm - - - - - SSE 24 32 13 17 - - -
25/07:30pm - - - - - SSE 22 30 12 16 - - -
25/07:00pm - - - - - SSE 24 30 13 16 - - -
25/06:30pm - - - - - S 24 32 13 17 - - -
25/06:00pm - - - - - SSE 26 30 14 16 - - -
25/05:30pm - - - - - SSE 20 22 11 12 - - -
25/05:00pm - - - - - SE 22 28 12 15 - - -
25/04:30pm - - - - - SE 24 30 13 16 - - -
25/04:00pm - - - - - SE 26 35 14 19 - - -
25/03:30pm - - - - - SSE 28 35 15 19 - - -
25/03:00pm - - - - - SSE 24 33 13 18 - - -
25/02:30pm - - - - - SSE 28 35 15 19 - - -
25/02:00pm - - - - - SSE 33 43 18 23 - - -
25/01:30pm - - - - - SSE 35 43 19 23 - - -
25/01:00pm - - - - - SE 30 39 16 21 - - -
25/12:30pm - - - - - SE 26 32 14 17 - - -
25/12:00pm - - - - - SE 28 33 15 18 - - -
25/11:30am - - - - - SE 28 37 15 20 - - -
25/11:00am - - - - - ESE 20 28 11 15 - - -
25/10:30am - - - - - SE 26 30 14 16 - - -
25/10:00am - - - - - SE 28 35 15 19 - - -
25/09:30am - - - - - SE 30 35 16 19 - - -
25/09:00am - - - - - SE 22 28 12 15 - - -
25/08:30am - - - - - SE 26 32 14 17 - - -
25/08:00am - - - - - SSE 26 30 14 16 - - -
25/07:30am - - - - - S 9 15 5 8 - - -
25/07:00am - - - - - SW 13 28 7 15 - - -
25/06:30am - - - - - WNW 7 15 4 8 - - -
25/06:00am - - - - - NW 6 13 3 7 - - -
25/05:30am - - - - - N 6 9 3 5 - - -
25/05:00am - - - - - NNW 6 7 3 4 - - -
25/04:30am - - - - - NNW 6 9 3 5 - - -
25/04:00am - - - - - NNW 7 15 4 8 - - -
25/03:30am - - - - - ESE 11 15 6 8 - - -
25/03:00am - - - - - E 15 19 8 10 - - -
25/02:30am - - - - - N 4 11 2 6 - - -
25/02:00am - - - - - NNE 4 7 2 4 - - -
25/01:30am - - - - - ESE 13 20 7 11 - - -
25/01:00am - - - - - SE 17 26 9 14 - - -

Latest Capital City Observations: Canberra | Sydney | Melbourne | Brisbane | Adelaide | Perth | Hobart | Darwin

Other formats

Comma delimited format used in spreadsheet applications
http://www.bom.gov.au/fwo/IDS60901/IDS60901.95679.axf

JavaScript Object Notation format (JSON) in row-major order
http://www.bom.gov.au/fwo/IDS60901/IDS60901.95679.json

Data quality

Most of these data are generated automatically and are frequently updated. Quality checks on data are not normally performed. It is possible for incorrect values to appear. Refer to information at About Latest Weather Observations and please check the disclaimer before using these data.